Flight Track Log - Related Links

Times and Time Zones

All times are in EDT time to prevent confusion due to time zone crossing. See the EJA122 flight status page for this flight to view local times or setup timezone preferences in your user account.

Time Position Orientation Groundspeed Altitude Reporting Facility
EDT Latitude Longitude Course Direction KTS MPH feet Rate Location/Type
Thu 06:55:07 PM 40.9803 -83.6617 69° East 172 198 27,000  Level Cleveland Center
Thu 06:56:09 PM 40.9994 -83.5939 69° East 196 226 4,700 -9,532 Descending Cleveland Center
Thu 06:57:11 PM 41.0222 -83.4883 74° East 254 292 7,300 2,371 Climbing Cleveland Center
Thu 06:58:13 PM 41.0494 -83.3814 71° East 300 345 9,600 2,160 Climbing Cleveland Center
Thu 06:59:16 PM 41.0800 -83.2647 71° East 329 379 11,800 2,160 Climbing Cleveland Center
Thu 07:00:18 PM 41.1125 -83.1375 71° East 343 395 14,100 1,984 Climbing Cleveland Center
Thu 07:01:20 PM 41.1439 -83.0136 71° East 353 406 15,900 1,597 Climbing Cleveland Center
Thu 07:02:22 PM 41.1778 -82.8844 71° East 365 420 17,400 1,403 Climbing Cleveland Center
Thu 07:03:24 PM 41.2100 -82.7511 72° East 373 429 18,800 1,548 Climbing Cleveland Center
Thu 07:04:26 PM 41.2492 -82.5967 71° East 376 433 20,600 1,548 Climbing Cleveland Center
Thu 07:05:28 PM 41.2917 -82.4711 66° East 371 427 22,000 1,403 Climbing Cleveland Center
Thu 07:06:30 PM 41.3714 -82.3928 36° Northeast 351 404 23,500 1,403 Climbing Cleveland Center
Thu 07:07:32 PM 41.4558 -82.3319 28° Northeast 341 392 24,900 1,258 Climbing Cleveland Center
Thu 07:08:34 PM 41.5392 -82.2717 28° Northeast 337 388 26,100 1,016 Climbing Cleveland Center
Thu 07:09:36 PM 41.6228 -82.2117 28° Northeast 336 387 27,000 435 Climbing Cleveland Center
Thu 07:10:38 PM 41.7225 -82.1381 29° Northeast 366 421 27,000  Level Cleveland Center
Thu 07:11:40 PM 41.8092 -82.0739 29° Northeast 387 445 27,000  Level Cleveland Center
Thu 07:12:42 PM 41.9094 -81.9997 29° Northeast 403 464 27,000  Level Cleveland Center
Thu 07:13:44 PM 42.0278 -81.9114 29° Northeast 411 473 27,000  Level Cleveland Center
Thu 07:14:46 PM 42.1300 -81.8364 29° Northeast 413 475 27,000  Level Cleveland Center
Thu 07:15:48 PM 42.2336 -81.7586 29° Northeast 419 482 27,000  Level Cleveland Center
Thu 07:16:50 PM 42.3386 -81.6800 29° Northeast 425 489 27,000  Level Cleveland Center
Thu 07:17:52 PM 42.4450 -81.6011 29° Northeast 429 494 27,000  Level Cleveland Center
Thu 07:18:54 PM 42.5511 -81.5208 29° Northeast 431 496 27,000  Level Cleveland Center
Thu 07:19:56 PM 42.6525 -81.4275 34° Northeast 434 499 27,000  Level Cleveland Center
Thu 07:20:58 PM 42.7419 -81.3108 44° Northeast 439 505 27,000 -739 Level Cleveland Center
Thu 07:23:19 PM 42.9500 -81.0000 48° Northeast 450 518 24,500 -1,194 Descending Toronto Center
Thu 07:24:19 PM 43.0333 -80.8833 46° Northeast 440 506 23,000 -1,750 Descending Toronto Center
Thu 07:25:19 PM 43.1500 -80.7833 32° Northeast 430 495 21,000 -1,900 Descending Toronto Center
Thu 07:26:19 PM 43.2167 -80.6667 52° Northeast 430 495 19,200 -1,650 Descending Toronto Center
Thu 07:27:19 PM 43.3000 -80.5667 41° Northeast 410 472 17,700 -1,450 Descending Toronto Center
Thu 07:28:19 PM 43.3833 -80.4667 41° Northeast 390 449 16,300 -1,350 Descending Toronto Center
Thu 07:29:19 PM 43.4500 -80.3667 47° Northeast 340 391 15,000 -1,250 Descending Toronto Center
Thu 07:30:19 PM 43.4833 -80.2500 68° East 320 368 13,800 -1,200 Descending Toronto Center
Thu 07:31:19 PM 43.5167 -80.1333 68° East 320 368 12,600 -1,300 Descending Toronto Center
Thu 07:32:19 PM 43.5500 -80.0167 68° East 320 368 11,200 -900 Descending Toronto Center
Thu 07:33:19 PM 43.6000 -79.9333 50° Northeast 310 357 10,800 -950 Descending Toronto Center
Thu 07:34:19 PM 43.6500 -79.8333 55° Northeast 300 345 9,300 -1,400 Descending Toronto Center
Thu 07:35:19 PM 43.7000 -79.7667 44° Northeast 270 311 8,000 -1,050 Descending Toronto Center
Thu 07:36:19 PM 43.7500 -79.7000 44° Northeast 260 299 7,200 -1,000 Descending Toronto Center
Thu 07:37:19 PM 43.8000 -79.6333 44° Northeast 260 299 6,000 -1,000 Descending Toronto Center
Thu 07:38:19 PM 43.8333 -79.5667 55° Northeast 250 288 5,200 -1,200 Descending Toronto Center
Thu 07:39:19 PM 43.8000 -79.5000 125° Southeast 220 253 3,600 -1,250 Descending Toronto Center
Thu 07:40:19 PM 43.7500 -79.5167 194° South 170 196 2,700 -900 Descending Toronto Center
Thu 07:41:19 PM 43.7333 -79.5667 245° Southwest 160 184 1,800 -850 Descending Toronto Center
Thu 07:42:19 PM 43.7000 -79.5833 200° South 140 161 1,000 -650 Descending Toronto Center
Thu 07:43:19 PM 43.6833 -79.6333 245° Southwest 120 138 500 -250 Descending Toronto Center
Thu 07:44:19 PM 43.6667 -79.6333 180° South 20 23 500  Level Toronto Center
Thu 07:45:19 PM 43.6833 -79.6333 360° North 20 23 500 50 Level Toronto Center
Thu 07:46:19 PM 43.6833 -79.6167 90° East 20 23 600 50 Climbing Toronto Center
Thu 07:47:19 PM 43.6667 -79.6167 180° South 20 23 600  Level Toronto Center

Login

Don't have an account? Register now (free) for customized features, flight alerts, and more!